createdAt,value
2017-11-04T00:01:00.914Z,8.10
2017-11-04T00:03:29.833Z,8.30
2017-11-04T00:05:57.953Z,8.30
2017-11-04T00:08:26.098Z,8.40
2017-11-04T00:10:54.249Z,8.50
2017-11-04T00:13:23.237Z,8.40
2017-11-04T00:15:52.152Z,8.40
2017-11-04T00:18:20.312Z,8.30
2017-11-04T00:20:48.418Z,8.00
2017-11-04T00:23:16.593Z,7.10
2017-11-04T00:25:44.718Z,7.50
2017-11-04T00:28:12.836Z,7.70
2017-11-04T00:30:40.986Z,7.80
2017-11-04T00:33:09.112Z,8.00
2017-11-04T00:35:38.030Z,8.00
2017-11-04T00:38:06.147Z,8.00
2017-11-04T00:40:34.292Z,8.10
2017-11-04T00:43:02.434Z,8.10
2017-11-04T00:45:30.569Z,8.20
2017-11-04T00:47:58.689Z,7.60
2017-11-04T00:50:27.615Z,7.10
2017-11-04T00:52:55.743Z,7.10
2017-11-04T00:55:23.893Z,7.10
2017-11-04T00:57:52.785Z,7.10
2017-11-04T01:00:23.129Z,7.10
2017-11-04T01:02:51.265Z,7.10
2017-11-04T01:05:20.168Z,7.10
2017-11-04T01:07:49.057Z,7.60
2017-11-04T01:10:17.968Z,7.40
2017-11-04T01:12:46.137Z,7.40
2017-11-04T01:15:15.029Z,7.60
2017-11-04T01:17:43.900Z,8.00
2017-11-04T01:20:12.813Z,8.10
2017-11-04T01:22:40.949Z,8.10
2017-11-04T01:25:09.082Z,8.20
2017-11-04T01:27:37.226Z,7.60
2017-11-04T01:30:05.363Z,7.60
2017-11-04T01:32:33.478Z,7.30
2017-11-04T01:35:01.637Z,7.20
2017-11-04T01:37:29.803Z,7.10
2017-11-04T01:39:57.944Z,7.30
2017-11-04T01:42:26.086Z,7.40
2017-11-04T01:44:54.212Z,7.30
2017-11-04T01:47:23.104Z,7.30
2017-11-04T01:49:51.257Z,7.30
2017-11-04T01:52:19.406Z,7.50
2017-11-04T01:54:47.550Z,7.50
2017-11-04T01:57:15.725Z,7.80
2017-11-04T01:59:43.981Z,8.10
2017-11-04T02:02:14.015Z,8.10
2017-11-04T02:04:42.895Z,8.10
2017-11-04T02:07:11.032Z,8.00
2017-11-04T02:09:39.934Z,8.30
2017-11-04T02:12:08.076Z,8.20
2017-11-04T02:14:36.248Z,8.30
2017-11-04T02:17:04.386Z,8.20
2017-11-04T02:19:32.524Z,8.20
2017-11-04T02:22:01.412Z,7.70
2017-11-04T02:24:30.326Z,7.70
2017-11-04T02:26:58.460Z,7.70
2017-11-04T02:29:26.588Z,7.90
2017-11-04T02:31:54.709Z,7.90
2017-11-04T02:34:22.845Z,7.80
2017-11-04T02:36:51.757Z,7.10
2017-11-04T02:39:19.887Z,7.10
2017-11-04T02:41:48.008Z,7.20
2017-11-04T02:44:17.083Z,7.10
2017-11-04T02:46:45.208Z,6.90
2017-11-04T02:49:15.741Z,7.00
2017-11-04T02:51:43.895Z,7.40
2017-11-04T02:54:12.796Z,7.30
2017-11-04T02:56:42.134Z,7.10
2017-11-04T02:59:10.271Z,7.10
2017-11-04T03:01:38.413Z,7.50
2017-11-04T03:04:06.603Z,7.60
2017-11-04T03:06:34.739Z,7.80
2017-11-04T03:09:02.915Z,8.00
2017-11-04T03:11:31.197Z,7.80
2017-11-04T03:13:59.331Z,7.20
2017-11-04T03:16:27.473Z,7.10
2017-11-04T03:18:56.361Z,7.50
2017-11-04T03:21:25.272Z,7.40
2017-11-04T03:23:53.386Z,7.40
2017-11-04T03:26:21.522Z,7.50
2017-11-04T03:28:49.656Z,7.80
2017-11-04T03:31:18.572Z,8.10
2017-11-04T03:33:46.687Z,8.10
2017-11-04T03:36:15.773Z,8.20
2017-11-04T03:38:44.688Z,7.80
2017-11-04T03:41:12.817Z,7.80
2017-11-04T03:43:40.959Z,7.60
2017-11-04T03:46:09.852Z,7.50
2017-11-04T03:48:37.989Z,7.60
2017-11-04T03:51:06.120Z,7.60
2017-11-04T03:53:34.268Z,7.50
2017-11-04T03:56:02.388Z,7.40
2017-11-04T03:58:30.523Z,7.80
2017-11-04T04:00:59.424Z,7.80
2017-11-04T04:03:27.552Z,7.80
2017-11-04T04:05:56.440Z,7.40
2017-11-04T04:08:25.428Z,7.40
2017-11-04T04:10:53.564Z,7.60
2017-11-04T04:13:21.708Z,7.40
2017-11-04T04:15:50.656Z,7.40
2017-11-04T04:18:19.588Z,7.80
2017-11-04T04:20:48.492Z,7.70
2017-11-04T04:23:16.622Z,7.70
2017-11-04T04:25:44.788Z,7.70
2017-11-04T04:28:12.918Z,8.00
2017-11-04T04:30:41.060Z,7.80
2017-11-04T04:33:09.176Z,7.80
2017-11-04T04:35:37.311Z,8.00
2017-11-04T04:38:05.430Z,8.10
2017-11-04T04:40:33.589Z,8.10
2017-11-04T04:43:01.692Z,8.20
2017-11-04T04:45:29.817Z,7.70
2017-11-04T04:47:57.977Z,7.90
2017-11-04T04:50:26.106Z,7.70
2017-11-04T04:52:54.260Z,8.10
2017-11-04T04:55:22.380Z,7.90
2017-11-04T04:57:51.290Z,7.90
2017-11-04T05:00:19.434Z,7.90
2017-11-04T05:02:48.328Z,8.10
2017-11-04T05:05:17.237Z,8.10
2017-11-04T05:07:45.406Z,8.10
2017-11-04T05:10:14.332Z,8.20
2017-11-04T05:12:42.741Z,8.20
2017-11-04T05:15:10.907Z,7.90
2017-11-04T05:17:39.033Z,8.10
2017-11-04T05:20:07.210Z,8.20
2017-11-04T05:22:35.485Z,8.30
2017-11-04T05:25:03.616Z,8.30
2017-11-04T05:27:32.517Z,8.20
2017-11-04T05:30:01.432Z,8.00
2017-11-04T05:32:29.556Z,8.00
2017-11-04T05:34:57.702Z,7.60
2017-11-04T05:37:25.836Z,7.40
2017-11-04T05:39:53.977Z,7.80
2017-11-04T05:42:22.163Z,8.00
2017-11-04T05:44:50.285Z,7.60
2017-11-04T05:47:18.415Z,7.40
2017-11-04T05:49:47.352Z,7.40
2017-11-04T05:52:16.246Z,7.70
2017-11-04T05:54:44.379Z,7.70
2017-11-04T05:57:13.275Z,8.10
2017-11-04T05:59:41.417Z,8.10
2017-11-04T06:02:09.554Z,8.20
2017-11-04T06:04:37.695Z,8.00
2017-11-04T06:07:05.829Z,8.00
2017-11-04T06:09:33.991Z,7.40
2017-11-04T06:12:02.127Z,7.60
2017-11-04T06:14:30.257Z,7.70
2017-11-04T06:16:59.190Z,7.80
2017-11-04T06:19:27.319Z,7.70
2017-11-04T06:21:56.234Z,7.50
2017-11-04T06:24:24.473Z,7.50
2017-11-04T06:26:52.617Z,7.20
2017-11-04T06:29:20.745Z,7.10
2017-11-04T06:31:48.883Z,7.20
2017-11-04T06:34:17.021Z,7.50
2017-11-04T06:36:45.139Z,7.80
2017-11-04T06:39:14.044Z,7.70
2017-11-04T06:41:42.995Z,8.00
2017-11-04T06:44:11.902Z,8.10
2017-11-04T06:46:40.040Z,8.10
2017-11-04T06:49:08.171Z,8.00
2017-11-04T06:51:36.313Z,7.80
2017-11-04T06:54:04.452Z,7.80
2017-11-04T06:56:32.584Z,7.90
2017-11-04T06:59:01.493Z,7.80
2017-11-04T07:01:29.651Z,7.80
2017-11-04T07:03:58.590Z,7.70
2017-11-04T07:06:26.721Z,7.70
2017-11-04T07:08:55.821Z,7.50
2017-11-04T07:11:23.948Z,7.70
2017-11-04T07:13:52.092Z,7.70
2017-11-04T07:16:20.381Z,7.90
2017-11-04T07:18:48.516Z,7.90
2017-11-04T07:21:16.649Z,8.00
2017-11-04T07:23:44.818Z,8.10
2017-11-04T07:26:12.993Z,8.20
2017-11-04T07:28:41.920Z,8.00
2017-11-04T07:31:10.890Z,8.20
2017-11-04T07:33:39.033Z,8.10
2017-11-04T07:36:07.166Z,8.00
2017-11-04T07:38:36.061Z,8.00
2017-11-04T07:41:04.231Z,7.90
2017-11-04T07:43:32.382Z,8.10
2017-11-04T07:46:01.303Z,8.30
2017-11-04T07:48:29.430Z,8.30
2017-11-04T07:50:58.332Z,8.50
2017-11-04T07:53:27.238Z,8.70
2017-11-04T07:55:56.189Z,8.60
2017-11-04T07:58:25.971Z,8.60
2017-11-04T08:00:54.141Z,8.70
2017-11-04T08:03:22.275Z,8.60
2017-11-04T08:05:51.185Z,8.50
2017-11-04T08:08:19.331Z,8.50
2017-11-04T08:10:48.283Z,8.40
2017-11-04T08:13:16.437Z,8.40
2017-11-04T08:15:44.615Z,8.50
2017-11-04T08:18:12.777Z,8.50
2017-11-04T08:20:40.934Z,8.60
2017-11-04T08:23:09.073Z,8.60
2017-11-04T08:25:38.030Z,8.80
2017-11-04T08:28:06.218Z,8.70
2017-11-04T08:30:34.340Z,8.70
2017-11-04T08:33:02.598Z,8.90
2017-11-04T08:35:31.481Z,9.10
2017-11-04T08:38:00.383Z,9.20
2017-11-04T08:40:29.285Z,9.30
2017-11-04T08:42:58.209Z,9.30
2017-11-04T08:45:26.348Z,9.30
2017-11-04T08:47:54.489Z,9.50
2017-11-04T08:50:23.377Z,9.60
2017-11-04T08:52:51.545Z,9.50
2017-11-04T08:55:19.692Z,9.60
2017-11-04T08:57:48.648Z,9.70
2017-11-04T09:00:16.789Z,9.80
2017-11-04T09:02:44.928Z,9.70
2017-11-04T09:05:15.194Z,9.80
2017-11-04T09:07:44.106Z,9.70
2017-11-04T09:10:12.240Z,9.70
2017-11-04T09:12:41.713Z,9.90
2017-11-04T09:15:10.179Z,10.00
2017-11-04T09:17:38.310Z,10.10
2017-11-04T09:20:07.214Z,10.20
2017-11-04T09:22:36.214Z,10.30
2017-11-04T09:25:05.104Z,10.40
2017-11-04T09:27:34.012Z,10.50
2017-11-04T09:30:03.339Z,10.50
2017-11-04T09:32:31.475Z,10.50
2017-11-04T09:35:00.563Z,10.50
2017-11-04T09:37:28.719Z,10.60
2017-11-04T09:39:58.245Z,11.00
2017-11-04T09:42:26.461Z,10.90
2017-11-04T09:44:55.192Z,11.00
2017-11-04T09:47:24.116Z,11.00
2017-11-04T09:49:52.248Z,11.00
2017-11-04T09:52:21.170Z,11.10
2017-11-04T09:54:49.304Z,11.10
2017-11-04T09:57:17.452Z,11.30
2017-11-04T09:59:45.626Z,11.20
2017-11-04T10:02:13.837Z,11.30
2017-11-04T10:04:42.469Z,11.30
2017-11-04T10:07:12.141Z,11.30
2017-11-04T10:09:41.085Z,11.40
2017-11-04T10:12:09.249Z,11.40
2017-11-04T10:14:37.409Z,11.50
2017-11-04T10:17:06.335Z,11.40
2017-11-04T10:19:34.487Z,11.40
2017-11-04T10:22:03.429Z,11.50
2017-11-04T10:24:31.552Z,11.50
2017-11-04T10:26:59.797Z,11.60
2017-11-04T10:29:28.713Z,11.70
2017-11-04T10:31:56.857Z,11.70
2017-11-04T10:34:25.013Z,11.80
2017-11-04T10:36:53.916Z,12.00
2017-11-04T10:39:22.089Z,12.00
2017-11-04T10:41:51.016Z,12.20
2017-11-04T10:44:19.171Z,12.20
2017-11-04T10:46:48.236Z,12.20
2017-11-04T10:49:17.149Z,12.40
2017-11-04T10:51:45.339Z,12.40
2017-11-04T10:54:14.160Z,12.50
2017-11-04T10:56:43.026Z,12.50
2017-11-04T10:59:11.161Z,12.50
2017-11-04T11:01:41.153Z,12.50
2017-11-04T11:04:09.275Z,12.40
2017-11-04T11:06:38.353Z,12.50
2017-11-04T11:09:06.506Z,12.40
2017-11-04T11:11:37.281Z,12.60
2017-11-04T11:14:05.415Z,12.50
2017-11-04T11:16:35.346Z,12.70
2017-11-04T11:19:04.254Z,12.70
2017-11-04T11:21:32.406Z,12.70
2017-11-04T11:24:01.368Z,12.60
2017-11-04T11:26:29.535Z,12.60
2017-11-04T11:28:57.673Z,12.80
2017-11-04T11:31:25.869Z,12.90
2017-11-04T11:33:54.001Z,12.80
2017-11-04T11:36:22.136Z,12.90
2017-11-04T11:38:50.323Z,12.90
2017-11-04T11:41:19.237Z,13.10
2017-11-04T11:43:47.402Z,13.10
2017-11-04T11:46:15.537Z,13.10
2017-11-04T11:48:43.708Z,13.30
2017-11-04T11:51:11.846Z,13.40
2017-11-04T11:53:39.987Z,13.40
2017-11-04T11:56:08.910Z,13.50
2017-11-04T11:58:37.796Z,13.70
2017-11-04T12:01:05.953Z,13.60
2017-11-04T12:03:34.086Z,13.80
2017-11-04T12:06:02.257Z,13.90
2017-11-04T12:08:30.417Z,14.10
2017-11-04T12:10:58.569Z,14.10
2017-11-04T12:13:26.714Z,14.10
2017-11-04T12:15:55.638Z,14.20
2017-11-04T12:18:23.795Z,14.20
2017-11-04T12:20:51.937Z,14.40
2017-11-04T12:23:20.086Z,14.40
2017-11-04T12:25:48.234Z,14.50
2017-11-04T12:28:17.281Z,14.40
2017-11-04T12:30:45.411Z,14.30
2017-11-04T12:33:13.578Z,14.40
2017-11-04T12:35:41.772Z,14.50
2017-11-04T12:38:11.093Z,14.40
2017-11-04T12:40:39.243Z,14.30
2017-11-04T12:43:07.396Z,14.20
2017-11-04T12:45:35.541Z,14.20
2017-11-04T12:48:05.418Z,14.10
2017-11-04T12:50:33.544Z,14.10
2017-11-04T12:53:02.549Z,14.10
2017-11-04T12:55:30.740Z,14.20
2017-11-04T12:57:58.905Z,14.30
2017-11-04T13:00:27.053Z,14.30
2017-11-04T13:02:55.985Z,14.20
2017-11-04T13:05:24.152Z,14.20
2017-11-04T13:07:53.067Z,14.20
2017-11-04T13:10:21.212Z,14.20
2017-11-04T13:12:49.341Z,14.30
2017-11-04T13:15:17.489Z,14.30
2017-11-04T13:17:45.916Z,14.50
2017-11-04T13:20:14.057Z,14.60
2017-11-04T13:22:42.985Z,14.80
2017-11-04T13:25:11.337Z,14.80
2017-11-04T13:27:41.236Z,14.90
2017-11-04T13:30:09.395Z,14.90
2017-11-04T13:32:37.522Z,15.00
2017-11-04T13:35:05.689Z,15.00
2017-11-04T13:37:33.839Z,15.00
2017-11-04T13:40:02.020Z,15.10
2017-11-04T13:42:30.930Z,15.20
2017-11-04T13:44:59.854Z,15.30
2017-11-04T13:47:27.994Z,15.30
2017-11-04T13:49:58.234Z,15.40
2017-11-04T13:52:29.564Z,15.50
2017-11-04T13:54:57.765Z,15.60
2017-11-04T13:57:27.569Z,15.90
2017-11-04T13:59:55.712Z,15.90
2017-11-04T14:02:23.857Z,16.00
2017-11-04T14:04:52.753Z,16.10
2017-11-04T14:07:20.901Z,16.20
2017-11-04T14:09:49.052Z,16.30
2017-11-04T14:12:17.207Z,16.30
2017-11-04T14:14:45.580Z,16.30
2017-11-04T14:17:14.513Z,16.20
2017-11-04T14:19:42.667Z,16.10
2017-11-04T14:22:10.845Z,16.00
2017-11-04T14:24:39.179Z,16.10
2017-11-04T14:27:08.091Z,17.90
2017-11-04T14:29:36.259Z,17.90
2017-11-04T14:32:04.410Z,19.20
2017-11-04T14:34:32.557Z,20.50
2017-11-04T14:37:01.674Z,21.30
2017-11-04T14:39:30.594Z,21.50
2017-11-04T14:41:58.755Z,21.50
2017-11-04T14:44:27.673Z,20.50
2017-11-04T14:46:56.644Z,20.50
2017-11-04T14:49:24.790Z,19.90
2017-11-04T14:51:53.712Z,18.70
2017-11-04T14:54:21.862Z,18.70
2017-11-04T14:56:50.802Z,17.80
2017-11-04T14:59:18.998Z,17.80
2017-11-04T15:01:47.117Z,17.50
2017-11-04T15:04:16.039Z,16.90
2017-11-04T15:06:44.193Z,16.90
2017-11-04T15:09:13.149Z,16.70
2017-11-04T15:11:41.286Z,16.50
2017-11-04T15:14:09.427Z,16.30
2017-11-04T15:16:37.604Z,16.20
2017-11-04T15:19:05.767Z,16.00
2017-11-04T15:21:34.687Z,15.70
2017-11-04T15:24:04.508Z,15.60
2017-11-04T15:26:32.650Z,15.60
2017-11-04T15:29:00.804Z,15.50
2017-11-04T15:31:28.948Z,15.40
2017-11-04T15:33:57.090Z,15.30
2017-11-04T15:36:25.237Z,15.20
2017-11-04T15:38:53.399Z,15.00
2017-11-04T15:41:23.490Z,14.80
2017-11-04T15:43:52.330Z,14.90
2017-11-04T15:46:20.461Z,14.80
2017-11-04T15:48:48.664Z,14.70
2017-11-04T15:51:16.970Z,14.60
2017-11-04T15:53:45.132Z,14.60
2017-11-04T15:56:13.280Z,14.40
2017-11-04T15:58:42.194Z,14.30
2017-11-04T16:01:10.358Z,14.30
2017-11-04T16:03:38.515Z,14.30
2017-11-04T16:06:06.712Z,14.20
2017-11-04T16:08:35.772Z,14.20
2017-11-04T16:11:05.029Z,14.20
2017-11-04T16:13:33.160Z,14.20
2017-11-04T16:16:02.080Z,14.10
2017-11-04T16:18:30.260Z,14.10
2017-11-04T16:20:58.394Z,14.10
2017-11-04T16:23:26.573Z,14.10
2017-11-04T16:25:54.716Z,14.10
2017-11-04T16:28:22.896Z,14.10
2017-11-04T16:30:51.038Z,13.90
2017-11-04T16:33:19.192Z,13.90
2017-11-04T16:35:47.332Z,13.90
2017-11-04T16:38:16.250Z,13.80
2017-11-04T16:40:44.408Z,13.80
2017-11-04T16:43:12.525Z,13.60
2017-11-04T16:45:40.690Z,13.40
2017-11-04T16:48:09.593Z,13.30
2017-11-04T16:50:38.499Z,13.30
2017-11-04T16:53:06.639Z,13.20
2017-11-04T16:55:34.779Z,13.30
2017-11-04T16:58:02.927Z,13.30
2017-11-04T17:00:31.936Z,13.30
2017-11-04T17:03:00.186Z,13.30
2017-11-04T17:05:28.377Z,13.30
2017-11-04T17:07:57.304Z,13.40
2017-11-04T17:10:26.225Z,13.30
2017-11-04T17:12:54.499Z,13.30
2017-11-04T17:15:22.657Z,13.10
2017-11-04T17:17:50.817Z,12.90
2017-11-04T17:20:18.973Z,12.80
2017-11-04T17:22:47.109Z,12.90
2017-11-04T17:25:16.036Z,12.90
2017-11-04T17:27:44.178Z,12.80
2017-11-04T17:30:13.106Z,12.90
2017-11-04T17:32:41.244Z,12.90
2017-11-04T17:35:09.400Z,12.90
2017-11-04T17:37:37.554Z,12.90
2017-11-04T17:40:05.729Z,12.90
2017-11-04T17:42:33.864Z,13.00
2017-11-04T17:45:03.222Z,12.80
2017-11-04T17:47:31.478Z,12.90
2017-11-04T17:49:59.612Z,13.00
2017-11-04T17:52:27.782Z,12.80
2017-11-04T17:54:55.921Z,12.70
2017-11-04T17:57:24.824Z,12.50
2017-11-04T17:59:53.759Z,12.40
2017-11-04T18:02:21.906Z,12.40
2017-11-04T18:04:50.066Z,12.50
2017-11-04T18:07:18.974Z,12.30
2017-11-04T18:09:47.159Z,12.30
2017-11-04T18:12:15.325Z,12.30
2017-11-04T18:14:43.498Z,12.40
2017-11-04T18:17:11.645Z,12.10
2017-11-04T18:19:40.586Z,11.90
2017-11-04T18:22:08.728Z,11.90
2017-11-04T18:24:36.908Z,12.00
2017-11-04T18:27:05.035Z,11.80
2017-11-04T18:29:33.213Z,11.80
2017-11-04T18:32:01.379Z,12.00
2017-11-04T18:34:29.521Z,11.90
2017-11-04T18:36:57.688Z,11.80
2017-11-04T18:39:25.916Z,12.00
2017-11-04T18:41:54.073Z,12.00
2017-11-04T18:44:22.216Z,11.90
2017-11-04T18:46:50.385Z,12.00
2017-11-04T18:49:18.550Z,11.80
2017-11-04T18:51:46.701Z,11.90
2017-11-04T18:54:14.844Z,11.80
2017-11-04T18:56:43.742Z,11.90
2017-11-04T18:59:11.957Z,11.80
2017-11-04T19:01:40.141Z,11.90
2017-11-04T19:04:08.299Z,11.60
2017-11-04T19:06:36.451Z,11.50
2017-11-04T19:09:05.496Z,11.40
2017-11-04T19:11:33.644Z,11.40
2017-11-04T19:14:01.802Z,11.50
2017-11-04T19:16:29.959Z,11.20
2017-11-04T19:18:58.103Z,11.20
2017-11-04T19:21:27.764Z,11.10
2017-11-04T19:23:56.004Z,11.10
2017-11-04T19:26:24.162Z,11.20
2017-11-04T19:28:52.331Z,11.10
2017-11-04T19:31:20.500Z,10.80
2017-11-04T19:33:48.650Z,11.00
2017-11-04T19:36:16.809Z,11.00
2017-11-04T19:38:44.956Z,11.10
2017-11-04T19:41:13.882Z,11.30
2017-11-04T19:43:42.106Z,11.30
2017-11-04T19:52:48.214Z,11.20
2017-11-04T19:55:29.160Z,10.80
2017-11-04T19:58:08.095Z,10.70
2017-11-04T20:00:41.510Z,10.60
2017-11-04T20:03:10.813Z,10.60
2017-11-04T20:05:40.014Z,10.40
2017-11-04T20:08:08.957Z,10.80
2017-11-04T20:10:37.136Z,10.80
2017-11-04T20:13:05.323Z,10.90
2017-11-04T20:15:33.474Z,11.00
2017-11-04T20:18:01.620Z,10.80
2017-11-04T20:20:30.714Z,10.60
2017-11-04T20:23:02.486Z,10.50
2017-11-04T20:25:30.819Z,10.70
2017-11-04T20:27:59.611Z,10.50
2017-11-04T20:30:28.545Z,10.40
2017-11-04T20:32:57.541Z,10.10
2017-11-04T20:35:25.765Z,10.10
2017-11-04T20:37:57.274Z,10.00
2017-11-04T20:40:25.499Z,10.00
2017-11-04T20:42:54.432Z,10.30
2017-11-04T20:45:22.660Z,10.30
2017-11-04T20:47:51.598Z,10.40
2017-11-04T20:50:20.472Z,10.40
2017-11-04T20:52:49.723Z,10.40
2017-11-04T20:55:17.876Z,10.60
2017-11-04T20:57:46.057Z,10.30
2017-11-04T21:00:14.232Z,10.00
2017-11-04T21:02:44.176Z,10.20
2017-11-04T21:05:12.344Z,10.30
2017-11-04T21:07:40.481Z,10.40
2017-11-04T21:10:08.661Z,10.50
2017-11-04T21:12:38.416Z,10.60
2017-11-04T21:15:06.610Z,10.50
2017-11-04T21:17:34.797Z,10.20
2017-11-04T21:20:03.736Z,10.30
2017-11-04T21:22:31.946Z,9.90
2017-11-04T21:25:00.104Z,9.80
2017-11-04T21:27:30.174Z,10.10
2017-11-04T21:29:58.319Z,10.30
2017-11-04T21:32:26.462Z,10.20
2017-11-04T21:34:54.623Z,10.30
2017-11-04T21:37:22.778Z,10.30
2017-11-04T21:39:50.948Z,10.20
2017-11-04T21:42:19.176Z,9.80
2017-11-04T21:44:47.322Z,9.60
2017-11-04T21:47:15.476Z,9.50
2017-11-04T21:49:43.630Z,9.30
2017-11-04T21:52:11.776Z,9.50
2017-11-04T21:54:39.931Z,9.70
2017-11-04T21:57:08.106Z,9.80
2017-11-04T21:59:36.352Z,9.90
2017-11-04T22:02:04.583Z,9.80
2017-11-04T22:04:32.736Z,9.70
2017-11-04T22:07:01.257Z,10.10
2017-11-04T22:09:29.387Z,9.90
2017-11-04T22:11:57.589Z,10.00
2017-11-04T22:14:25.738Z,9.70
2017-11-04T22:16:53.944Z,9.60
2017-11-04T22:19:23.003Z,9.60
2017-11-04T22:21:51.759Z,9.90
2017-11-04T22:24:19.909Z,9.60
2017-11-04T22:26:48.101Z,9.90
2017-11-04T22:29:17.047Z,10.00
2017-11-04T22:31:45.215Z,10.00
2017-11-04T22:34:14.167Z,9.70
2017-11-04T22:36:42.318Z,9.70
2017-11-04T22:39:10.464Z,9.30
2017-11-04T22:41:38.612Z,9.50
2017-11-04T22:44:08.006Z,9.60
2017-11-04T22:46:36.137Z,9.30
2017-11-04T22:49:04.301Z,9.40
2017-11-04T22:51:32.451Z,9.50
2017-11-04T22:54:01.144Z,9.70
2017-11-04T22:56:29.289Z,9.60
2017-11-04T22:58:58.214Z,9.70
2017-11-04T23:01:26.383Z,9.70
2017-11-04T23:03:54.540Z,9.50
2017-11-04T23:06:22.691Z,9.30
2017-11-04T23:08:51.620Z,9.30
2017-11-04T23:11:19.776Z,9.30
2017-11-04T23:13:47.920Z,9.40
2017-11-04T23:16:16.820Z,9.30
2017-11-04T23:18:44.998Z,9.30
2017-11-04T23:21:13.899Z,9.30
2017-11-04T23:23:42.045Z,9.30
2017-11-04T23:26:10.973Z,9.60
2017-11-04T23:28:39.079Z,9.50
2017-11-04T23:31:07.172Z,9.60
2017-11-04T23:33:36.040Z,9.40
2017-11-04T23:36:04.183Z,9.40
2017-11-04T23:38:32.315Z,9.50
2017-11-04T23:41:02.532Z,9.20
2017-11-04T23:43:33.585Z,9.50
2017-11-04T23:46:03.156Z,9.80
2017-11-04T23:48:33.181Z,9.80
2017-11-04T23:51:02.071Z,10.00
2017-11-04T23:53:30.977Z,9.60
2017-11-04T23:55:59.799Z,9.60
2017-11-04T23:58:28.521Z,9.30
